sensor_id;sensor_type;location;lat;lon;timestamp;P1;durP1;ratioP1;P2;durP2;ratioP2
82990;SDS011;72806;50.832;4.864;2023-10-31T00:01:22;22.73;;;9.73;;
82990;SDS011;72806;50.832;4.864;2023-10-31T00:03:49;24.75;;;10.02;;
82990;SDS011;72806;50.832;4.864;2023-10-31T00:06:17;25.45;;;10.75;;
82990;SDS011;72806;50.832;4.864;2023-10-31T00:08:45;24.35;;;10.13;;
82990;SDS011;72806;50.832;4.864;2023-10-31T00:11:12;26.40;;;11.30;;
82990;SDS011;72806;50.832;4.864;2023-10-31T00:13:39;26.38;;;10.30;;
82990;SDS011;72806;50.832;4.864;2023-10-31T00:16:06;31.10;;;11.63;;
82990;SDS011;72806;50.832;4.864;2023-10-31T00:18:34;34.15;;;13.57;;
82990;SDS011;72806;50.832;4.864;2023-10-31T00:21:01;30.75;;;12.43;;
82990;SDS011;72806;50.832;4.864;2023-10-31T00:23:32;31.10;;;13.30;;
82990;SDS011;72806;50.832;4.864;2023-10-31T00:25:59;28.00;;;11.82;;
82990;SDS011;72806;50.832;4.864;2023-10-31T00:28:26;32.72;;;13.23;;
82990;SDS011;72806;50.832;4.864;2023-10-31T00:30:54;33.38;;;12.88;;
82990;SDS011;72806;50.832;4.864;2023-10-31T00:33:21;38.25;;;13.52;;
82990;SDS011;72806;50.832;4.864;2023-10-31T00:35:48;35.45;;;14.73;;
82990;SDS011;72806;50.832;4.864;2023-10-31T00:38:16;30.77;;;12.70;;
82990;SDS011;72806;50.832;4.864;2023-10-31T00:40:44;30.30;;;11.98;;
82990;SDS011;72806;50.832;4.864;2023-10-31T00:43:12;24.77;;;10.63;;
82990;SDS011;72806;50.832;4.864;2023-10-31T00:45:39;19.00;;;10.55;;
82990;SDS011;72806;50.832;4.864;2023-10-31T00:48:06;23.38;;;9.48;;
82990;SDS011;72806;50.832;4.864;2023-10-31T00:50:33;21.52;;;8.10;;
82990;SDS011;72806;50.832;4.864;2023-10-31T00:53:00;19.48;;;8.57;;
82990;SDS011;72806;50.832;4.864;2023-10-31T00:55:28;14.25;;;8.38;;
82990;SDS011;72806;50.832;4.864;2023-10-31T00:57:56;14.05;;;7.03;;
82990;SDS011;72806;50.832;4.864;2023-10-31T01:00:23;13.10;;;7.15;;
82990;SDS011;72806;50.832;4.864;2023-10-31T01:02:50;12.00;;;6.57;;
82990;SDS011;72806;50.832;4.864;2023-10-31T01:05:18;16.45;;;6.63;;
82990;SDS011;72806;50.832;4.864;2023-10-31T01:07:45;14.52;;;6.18;;
82990;SDS011;72806;50.832;4.864;2023-10-31T01:10:13;13.90;;;5.82;;
82990;SDS011;72806;50.832;4.864;2023-10-31T01:12:40;11.20;;;5.43;;
82990;SDS011;72806;50.832;4.864;2023-10-31T01:15:09;14.57;;;6.28;;
82990;SDS011;72806;50.832;4.864;2023-10-31T01:17:37;11.40;;;5.25;;
82990;SDS011;72806;50.832;4.864;2023-10-31T01:20:05;12.23;;;5.32;;
82990;SDS011;72806;50.832;4.864;2023-10-31T01:22:32;9.20;;;4.90;;
82990;SDS011;72806;50.832;4.864;2023-10-31T01:24:59;11.23;;;4.78;;
82990;SDS011;72806;50.832;4.864;2023-10-31T01:27:26;9.23;;;4.70;;
82990;SDS011;72806;50.832;4.864;2023-10-31T01:29:54;9.10;;;4.60;;
82990;SDS011;72806;50.832;4.864;2023-10-31T01:32:22;8.15;;;3.97;;
82990;SDS011;72806;50.832;4.864;2023-10-31T01:34:49;8.75;;;4.10;;
82990;SDS011;72806;50.832;4.864;2023-10-31T01:37:16;6.70;;;3.35;;
82990;SDS011;72806;50.832;4.864;2023-10-31T01:39:46;7.90;;;3.70;;
82990;SDS011;72806;50.832;4.864;2023-10-31T01:42:13;8.77;;;5.10;;
82990;SDS011;72806;50.832;4.864;2023-10-31T01:44:41;7.90;;;4.38;;
82990;SDS011;72806;50.832;4.864;2023-10-31T01:47:08;8.05;;;4.45;;
82990;SDS011;72806;50.832;4.864;2023-10-31T01:49:37;10.23;;;5.95;;
82990;SDS011;72806;50.832;4.864;2023-10-31T01:52:05;12.55;;;6.68;;
82990;SDS011;72806;50.832;4.864;2023-10-31T01:54:33;14.68;;;5.43;;
82990;SDS011;72806;50.832;4.864;2023-10-31T01:57:01;10.40;;;5.07;;
82990;SDS011;72806;50.832;4.864;2023-10-31T01:59:29;8.73;;;4.95;;
82990;SDS011;72806;50.832;4.864;2023-10-31T02:01:57;14.65;;;5.40;;
82990;SDS011;72806;50.832;4.864;2023-10-31T02:04:24;11.02;;;4.70;;
82990;SDS011;72806;50.832;4.864;2023-10-31T02:06:53;6.13;;;3.63;;
82990;SDS011;72806;50.832;4.864;2023-10-31T02:09:20;8.30;;;4.93;;
82990;SDS011;72806;50.832;4.864;2023-10-31T02:11:49;6.55;;;3.78;;
82990;SDS011;72806;50.832;4.864;2023-10-31T02:14:18;14.23;;;6.45;;
82990;SDS011;72806;50.832;4.864;2023-10-31T02:16:45;12.43;;;5.78;;
82990;SDS011;72806;50.832;4.864;2023-10-31T02:19:12;11.77;;;5.93;;
82990;SDS011;72806;50.832;4.864;2023-10-31T02:21:42;15.68;;;6.47;;
82990;SDS011;72806;50.832;4.864;2023-10-31T02:24:09;8.63;;;5.18;;
82990;SDS011;72806;50.832;4.864;2023-10-31T02:26:36;13.85;;;7.07;;
82990;SDS011;72806;50.832;4.864;2023-10-31T02:29:04;16.83;;;6.78;;
82990;SDS011;72806;50.832;4.864;2023-10-31T02:31:32;15.93;;;8.05;;
82990;SDS011;72806;50.832;4.864;2023-10-31T02:33:59;12.55;;;6.45;;
82990;SDS011;72806;50.832;4.864;2023-10-31T02:36:27;12.18;;;6.40;;
82990;SDS011;72806;50.832;4.864;2023-10-31T02:38:55;14.50;;;7.07;;
82990;SDS011;72806;50.832;4.864;2023-10-31T02:41:22;13.40;;;6.85;;
82990;SDS011;72806;50.832;4.864;2023-10-31T02:43:50;13.13;;;6.18;;
82990;SDS011;72806;50.832;4.864;2023-10-31T02:46:20;12.45;;;6.05;;
82990;SDS011;72806;50.832;4.864;2023-10-31T02:48:47;17.40;;;6.35;;
82990;SDS011;72806;50.832;4.864;2023-10-31T02:51:14;13.40;;;6.13;;
82990;SDS011;72806;50.832;4.864;2023-10-31T02:53:41;17.13;;;6.35;;
82990;SDS011;72806;50.832;4.864;2023-10-31T02:56:10;17.25;;;6.90;;
82990;SDS011;72806;50.832;4.864;2023-10-31T02:58:37;17.27;;;6.30;;
82990;SDS011;72806;50.832;4.864;2023-10-31T03:01:04;16.95;;;7.90;;
82990;SDS011;72806;50.832;4.864;2023-10-31T03:03:31;14.00;;;6.55;;
82990;SDS011;72806;50.832;4.864;2023-10-31T03:05:58;16.67;;;6.95;;
82990;SDS011;72806;50.832;4.864;2023-10-31T03:08:26;13.73;;;6.50;;
82990;SDS011;72806;50.832;4.864;2023-10-31T03:10:53;13.13;;;6.47;;
82990;SDS011;72806;50.832;4.864;2023-10-31T03:13:22;14.07;;;6.15;;
82990;SDS011;72806;50.832;4.864;2023-10-31T03:15:49;15.35;;;6.45;;
82990;SDS011;72806;50.832;4.864;2023-10-31T03:18:17;11.50;;;5.75;;
82990;SDS011;72806;50.832;4.864;2023-10-31T03:20:45;12.88;;;5.75;;
82990;SDS011;72806;50.832;4.864;2023-10-31T03:23:12;10.35;;;4.82;;
82990;SDS011;72806;50.832;4.864;2023-10-31T03:25:39;9.70;;;4.60;;
82990;SDS011;72806;50.832;4.864;2023-10-31T03:28:08;15.43;;;6.75;;
82990;SDS011;72806;50.832;4.864;2023-10-31T03:30:45;10.68;;;5.38;;
82990;SDS011;72806;50.832;4.864;2023-10-31T03:33:13;11.18;;;4.90;;
82990;SDS011;72806;50.832;4.864;2023-10-31T03:35:40;10.48;;;5.15;;
82990;SDS011;72806;50.832;4.864;2023-10-31T03:38:07;10.05;;;4.25;;
82990;SDS011;72806;50.832;4.864;2023-10-31T03:40:34;9.18;;;4.40;;
82990;SDS011;72806;50.832;4.864;2023-10-31T03:43:01;9.20;;;4.13;;
82990;SDS011;72806;50.832;4.864;2023-10-31T03:45:28;11.57;;;4.93;;
82990;SDS011;72806;50.832;4.864;2023-10-31T03:47:57;13.57;;;4.97;;
82990;SDS011;72806;50.832;4.864;2023-10-31T03:50:24;9.38;;;4.65;;
82990;SDS011;72806;50.832;4.864;2023-10-31T03:52:51;7.63;;;3.45;;
82990;SDS011;72806;50.832;4.864;2023-10-31T03:55:19;10.60;;;4.18;;
82990;SDS011;72806;50.832;4.864;2023-10-31T03:57:46;8.43;;;3.95;;
82990;SDS011;72806;50.832;4.864;2023-10-31T04:00:13;11.32;;;4.90;;
82990;SDS011;72806;50.832;4.864;2023-10-31T04:02:41;7.05;;;4.13;;
82990;SDS011;72806;50.832;4.864;2023-10-31T04:05:09;11.23;;;5.63;;
82990;SDS011;72806;50.832;4.864;2023-10-31T04:07:37;9.98;;;5.18;;
82990;SDS011;72806;50.832;4.864;2023-10-31T04:10:04;13.18;;;5.10;;
82990;SDS011;72806;50.832;4.864;2023-10-31T04:12:32;11.77;;;5.20;;
82990;SDS011;72806;50.832;4.864;2023-10-31T04:14:59;9.48;;;5.70;;
82990;SDS011;72806;50.832;4.864;2023-10-31T04:17:26;7.85;;;4.95;;
82990;SDS011;72806;50.832;4.864;2023-10-31T04:19:53;8.48;;;5.32;;
82990;SDS011;72806;50.832;4.864;2023-10-31T04:22:22;8.50;;;5.88;;
82990;SDS011;72806;50.832;4.864;2023-10-31T04:24:49;6.45;;;5.05;;
82990;SDS011;72806;50.832;4.864;2023-10-31T04:27:16;6.00;;;4.82;;
82990;SDS011;72806;50.832;4.864;2023-10-31T04:29:44;9.27;;;5.75;;
82990;SDS011;72806;50.832;4.864;2023-10-31T04:32:11;7.15;;;5.88;;
82990;SDS011;72806;50.832;4.864;2023-10-31T04:34:39;8.60;;;6.20;;
82990;SDS011;72806;50.832;4.864;2023-10-31T04:37:06;7.00;;;6.10;;
82990;SDS011;72806;50.832;4.864;2023-10-31T04:39:36;7.35;;;6.38;;
82990;SDS011;72806;50.832;4.864;2023-10-31T04:42:03;7.72;;;6.07;;
82990;SDS011;72806;50.832;4.864;2023-10-31T04:44:30;9.82;;;6.45;;
82990;SDS011;72806;50.832;4.864;2023-10-31T04:46:57;7.28;;;6.03;;
82990;SDS011;72806;50.832;4.864;2023-10-31T04:49:25;11.77;;;6.75;;
82990;SDS011;72806;50.832;4.864;2023-10-31T04:51:52;10.15;;;7.28;;
82990;SDS011;72806;50.832;4.864;2023-10-31T04:54:19;8.98;;;6.72;;
82990;SDS011;72806;50.832;4.864;2023-10-31T04:56:48;9.18;;;7.47;;
82990;SDS011;72806;50.832;4.864;2023-10-31T04:59:15;8.45;;;6.80;;
82990;SDS011;72806;50.832;4.864;2023-10-31T05:01:47;9.68;;;7.38;;
82990;SDS011;72806;50.832;4.864;2023-10-31T05:04:16;8.52;;;6.63;;
82990;SDS011;72806;50.832;4.864;2023-10-31T05:06:43;7.80;;;5.80;;
82990;SDS011;72806;50.832;4.864;2023-10-31T05:09:11;9.45;;;6.60;;
82990;SDS011;72806;50.832;4.864;2023-10-31T05:11:38;8.80;;;6.25;;
82990;SDS011;72806;50.832;4.864;2023-10-31T05:14:08;8.25;;;6.78;;
82990;SDS011;72806;50.832;4.864;2023-10-31T05:16:40;9.23;;;6.80;;
82990;SDS011;72806;50.832;4.864;2023-10-31T05:19:07;6.47;;;5.13;;
82990;SDS011;72806;50.832;4.864;2023-10-31T05:21:34;9.20;;;6.35;;
82990;SDS011;72806;50.832;4.864;2023-10-31T05:24:01;8.52;;;6.35;;
82990;SDS011;72806;50.832;4.864;2023-10-31T05:26:29;9.88;;;7.50;;
82990;SDS011;72806;50.832;4.864;2023-10-31T05:28:56;10.02;;;6.95;;
82990;SDS011;72806;50.832;4.864;2023-10-31T05:31:25;12.23;;;7.18;;
82990;SDS011;72806;50.832;4.864;2023-10-31T05:33:52;8.38;;;6.78;;
82990;SDS011;72806;50.832;4.864;2023-10-31T05:36:20;13.13;;;7.40;;
82990;SDS011;72806;50.832;4.864;2023-10-31T05:38:47;8.23;;;6.75;;
82990;SDS011;72806;50.832;4.864;2023-10-31T05:41:15;8.70;;;7.30;;
82990;SDS011;72806;50.832;4.864;2023-10-31T05:43:42;10.35;;;7.22;;
82990;SDS011;72806;50.832;4.864;2023-10-31T05:46:09;11.70;;;7.50;;
82990;SDS011;72806;50.832;4.864;2023-10-31T05:48:40;8.32;;;6.00;;
82990;SDS011;72806;50.832;4.864;2023-10-31T05:51:10;8.32;;;5.45;;
82990;SDS011;72806;50.832;4.864;2023-10-31T05:53:39;9.35;;;7.05;;
82990;SDS011;72806;50.832;4.864;2023-10-31T05:56:07;8.60;;;5.90;;
82990;SDS011;72806;50.832;4.864;2023-10-31T05:58:34;8.15;;;5.97;;
82990;SDS011;72806;50.832;4.864;2023-10-31T06:01:02;9.73;;;6.85;;
82990;SDS011;72806;50.832;4.864;2023-10-31T06:03:29;10.20;;;6.72;;
82990;SDS011;72806;50.832;4.864;2023-10-31T06:05:58;8.23;;;5.90;;
82990;SDS011;72806;50.832;4.864;2023-10-31T06:08:25;10.35;;;6.78;;
82990;SDS011;72806;50.832;4.864;2023-10-31T06:10:53;8.90;;;6.07;;
82990;SDS011;72806;50.832;4.864;2023-10-31T06:13:21;12.02;;;6.18;;
82990;SDS011;72806;50.832;4.864;2023-10-31T06:15:48;9.35;;;6.97;;
82990;SDS011;72806;50.832;4.864;2023-10-31T06:18:15;8.45;;;6.18;;
82990;SDS011;72806;50.832;4.864;2023-10-31T06:20:42;7.72;;;5.40;;
82990;SDS011;72806;50.832;4.864;2023-10-31T06:23:11;8.32;;;6.35;;
82990;SDS011;72806;50.832;4.864;2023-10-31T06:25:38;7.90;;;6.05;;
82990;SDS011;72806;50.832;4.864;2023-10-31T06:28:05;8.45;;;6.18;;
82990;SDS011;72806;50.832;4.864;2023-10-31T06:30:33;7.68;;;5.78;;
82990;SDS011;72806;50.832;4.864;2023-10-31T06:33:00;7.28;;;6.28;;
82990;SDS011;72806;50.832;4.864;2023-10-31T06:35:27;11.10;;;5.88;;
82990;SDS011;72806;50.832;4.864;2023-10-31T06:37:55;8.98;;;5.72;;
82990;SDS011;72806;50.832;4.864;2023-10-31T06:40:25;6.38;;;5.63;;
82990;SDS011;72806;50.832;4.864;2023-10-31T06:42:52;7.97;;;6.28;;
82990;SDS011;72806;50.832;4.864;2023-10-31T06:45:19;9.45;;;6.47;;
82990;SDS011;72806;50.832;4.864;2023-10-31T06:47:46;7.93;;;6.20;;
82990;SDS011;72806;50.832;4.864;2023-10-31T06:50:14;9.10;;;6.57;;
82990;SDS011;72806;50.832;4.864;2023-10-31T06:52:41;7.82;;;5.53;;
82990;SDS011;72806;50.832;4.864;2023-10-31T06:55:08;9.40;;;6.18;;
82990;SDS011;72806;50.832;4.864;2023-10-31T06:57:37;9.77;;;5.82;;
82990;SDS011;72806;50.832;4.864;2023-10-31T07:00:05;6.70;;;5.13;;
82990;SDS011;72806;50.832;4.864;2023-10-31T07:02:34;7.97;;;4.75;;
82990;SDS011;72806;50.832;4.864;2023-10-31T07:05:01;8.05;;;4.78;;
82990;SDS011;72806;50.832;4.864;2023-10-31T07:07:29;4.60;;;3.85;;
82990;SDS011;72806;50.832;4.864;2023-10-31T07:09:57;7.43;;;3.83;;
82990;SDS011;72806;50.832;4.864;2023-10-31T07:12:24;8.07;;;3.85;;
82990;SDS011;72806;50.832;4.864;2023-10-31T07:14:53;7.35;;;4.07;;
82990;SDS011;72806;50.832;4.864;2023-10-31T07:17:20;7.03;;;4.85;;
82990;SDS011;72806;50.832;4.864;2023-10-31T07:19:48;6.15;;;4.35;;
82990;SDS011;72806;50.832;4.864;2023-10-31T07:22:15;5.97;;;4.45;;
82990;SDS011;72806;50.832;4.864;2023-10-31T07:24:42;5.68;;;4.45;;
82990;SDS011;72806;50.832;4.864;2023-10-31T07:27:09;7.70;;;4.68;;
82990;SDS011;72806;50.832;4.864;2023-10-31T07:29:38;4.82;;;3.80;;
82990;SDS011;72806;50.832;4.864;2023-10-31T07:32:08;7.05;;;4.45;;
82990;SDS011;72806;50.832;4.864;2023-10-31T07:34:35;5.00;;;3.72;;
82990;SDS011;72806;50.832;4.864;2023-10-31T07:37:02;7.90;;;4.32;;
82990;SDS011;72806;50.832;4.864;2023-10-31T07:39:29;4.65;;;4.00;;
82990;SDS011;72806;50.832;4.864;2023-10-31T07:41:57;6.47;;;3.92;;
82990;SDS011;72806;50.832;4.864;2023-10-31T07:44:24;9.18;;;4.80;;
82990;SDS011;72806;50.832;4.864;2023-10-31T07:46:51;4.75;;;4.25;;
82990;SDS011;72806;50.832;4.864;2023-10-31T07:49:21;4.80;;;4.10;;
82990;SDS011;72806;50.832;4.864;2023-10-31T07:51:49;7.05;;;5.10;;
82990;SDS011;72806;50.832;4.864;2023-10-31T07:54:16;7.38;;;4.72;;
82990;SDS011;72806;50.832;4.864;2023-10-31T07:56:44;6.63;;;4.45;;
82990;SDS011;72806;50.832;4.864;2023-10-31T07:59:11;7.55;;;5.72;;
82990;SDS011;72806;50.832;4.864;2023-10-31T08:01:38;10.52;;;5.30;;
82990;SDS011;72806;50.832;4.864;2023-10-31T08:04:06;5.80;;;4.97;;
82990;SDS011;72806;50.832;4.864;2023-10-31T08:06:36;5.45;;;4.22;;
82990;SDS011;72806;50.832;4.864;2023-10-31T08:09:04;8.73;;;4.43;;
82990;SDS011;72806;50.832;4.864;2023-10-31T08:11:31;5.82;;;3.95;;
82990;SDS011;72806;50.832;4.864;2023-10-31T08:14:00;6.18;;;4.32;;
82990;SDS011;72806;50.832;4.864;2023-10-31T08:16:27;7.47;;;4.13;;
82990;SDS011;72806;50.832;4.864;2023-10-31T08:18:55;7.88;;;3.97;;
82990;SDS011;72806;50.832;4.864;2023-10-31T08:21:22;15.60;;;5.53;;
82990;SDS011;72806;50.832;4.864;2023-10-31T08:23:50;8.23;;;3.95;;
82990;SDS011;72806;50.832;4.864;2023-10-31T08:26:18;10.82;;;5.70;;
82990;SDS011;72806;50.832;4.864;2023-10-31T08:28:45;12.68;;;5.70;;
82990;SDS011;72806;50.832;4.864;2023-10-31T08:31:13;8.55;;;5.90;;
82990;SDS011;72806;50.832;4.864;2023-10-31T08:33:40;6.85;;;5.55;;
82990;SDS011;72806;50.832;4.864;2023-10-31T08:36:07;8.85;;;5.03;;
82990;SDS011;72806;50.832;4.864;2023-10-31T08:38:35;6.82;;;4.82;;
82990;SDS011;72806;50.832;4.864;2023-10-31T08:41:03;8.10;;;5.18;;
82990;SDS011;72806;50.832;4.864;2023-10-31T08:43:30;7.57;;;4.60;;
82990;SDS011;72806;50.832;4.864;2023-10-31T08:45:58;8.20;;;5.03;;
82990;SDS011;72806;50.832;4.864;2023-10-31T08:48:25;6.13;;;4.30;;
82990;SDS011;72806;50.832;4.864;2023-10-31T08:50:53;7.53;;;4.88;;
82990;SDS011;72806;50.832;4.864;2023-10-31T08:53:20;6.18;;;4.53;;
82990;SDS011;72806;50.832;4.864;2023-10-31T08:55:47;9.02;;;5.03;;
82990;SDS011;72806;50.832;4.864;2023-10-31T08:58:16;7.97;;;4.88;;
82990;SDS011;72806;50.832;4.864;2023-10-31T09:00:43;8.55;;;4.93;;
82990;SDS011;72806;50.832;4.864;2023-10-31T09:03:10;6.25;;;4.50;;
82990;SDS011;72806;50.832;4.864;2023-10-31T09:05:38;6.60;;;4.40;;
82990;SDS011;72806;50.832;4.864;2023-10-31T09:08:05;6.75;;;4.85;;
82990;SDS011;72806;50.832;4.864;2023-10-31T09:10:35;8.07;;;5.10;;
82990;SDS011;72806;50.832;4.864;2023-10-31T09:13:03;4.80;;;3.60;;
82990;SDS011;72806;50.832;4.864;2023-10-31T09:15:31;6.70;;;3.50;;
82990;SDS011;72806;50.832;4.864;2023-10-31T09:17:59;5.20;;;3.40;;
82990;SDS011;72806;50.832;4.864;2023-10-31T09:20:27;4.50;;;3.67;;
82990;SDS011;72806;50.832;4.864;2023-10-31T09:22:55;5.72;;;3.90;;
82990;SDS011;72806;50.832;4.864;2023-10-31T09:25:22;5.32;;;3.80;;
82990;SDS011;72806;50.832;4.864;2023-10-31T09:27:49;7.07;;;3.85;;
82990;SDS011;72806;50.832;4.864;2023-10-31T09:30:17;5.07;;;3.42;;
82990;SDS011;72806;50.832;4.864;2023-10-31T09:32:45;6.35;;;3.22;;
82990;SDS011;72806;50.832;4.864;2023-10-31T09:35:12;5.15;;;3.70;;
82990;SDS011;72806;50.832;4.864;2023-10-31T09:37:40;5.70;;;3.80;;
82990;SDS011;72806;50.832;4.864;2023-10-31T09:40:09;6.22;;;3.65;;
82990;SDS011;72806;50.832;4.864;2023-10-31T09:42:36;5.40;;;3.47;;
82990;SDS011;72806;50.832;4.864;2023-10-31T09:45:03;5.70;;;2.50;;
82990;SDS011;72806;50.832;4.864;2023-10-31T09:47:34;4.82;;;2.80;;
82990;SDS011;72806;50.832;4.864;2023-10-31T09:50:03;6.30;;;2.63;;
82990;SDS011;72806;50.832;4.864;2023-10-31T09:52:32;2.92;;;2.38;;
82990;SDS011;72806;50.832;4.864;2023-10-31T09:54:59;4.53;;;2.63;;
82990;SDS011;72806;50.832;4.864;2023-10-31T09:57:27;3.90;;;2.33;;
82990;SDS011;72806;50.832;4.864;2023-10-31T09:59:55;2.90;;;2.70;;
82990;SDS011;72806;50.832;4.864;2023-10-31T10:02:22;4.30;;;2.35;;
82990;SDS011;72806;50.832;4.864;2023-10-31T10:04:49;2.15;;;1.95;;
82990;SDS011;72806;50.832;4.864;2023-10-31T10:07:18;3.60;;;2.10;;
82990;SDS011;72806;50.832;4.864;2023-10-31T10:09:45;6.50;;;2.40;;
82990;SDS011;72806;50.832;4.864;2023-10-31T10:12:13;2.70;;;2.30;;
82990;SDS011;72806;50.832;4.864;2023-10-31T10:14:42;3.67;;;2.15;;
82990;SDS011;72806;50.832;4.864;2023-10-31T10:17:14;3.75;;;2.28;;
82990;SDS011;72806;50.832;4.864;2023-10-31T10:19:42;7.68;;;2.28;;
82990;SDS011;72806;50.832;4.864;2023-10-31T10:22:09;4.22;;;2.40;;
82990;SDS011;72806;50.832;4.864;2023-10-31T10:24:40;5.97;;;2.92;;
82990;SDS011;72806;50.832;4.864;2023-10-31T10:27:07;2.75;;;2.47;;
82990;SDS011;72806;50.832;4.864;2023-10-31T10:29:35;7.43;;;3.05;;
82990;SDS011;72806;50.832;4.864;2023-10-31T10:32:04;3.38;;;3.03;;
82990;SDS011;72806;50.832;4.864;2023-10-31T10:34:34;3.90;;;2.88;;
82990;SDS011;72806;50.832;4.864;2023-10-31T10:37:03;4.85;;;2.45;;
82990;SDS011;72806;50.832;4.864;2023-10-31T10:39:32;5.53;;;2.55;;
82990;SDS011;72806;50.832;4.864;2023-10-31T10:42:03;4.68;;;1.77;;
82990;SDS011;72806;50.832;4.864;2023-10-31T10:44:33;7.22;;;1.95;;
82990;SDS011;72806;50.832;4.864;2023-10-31T10:47:02;3.83;;;2.13;;
82990;SDS011;72806;50.832;4.864;2023-10-31T10:49:32;4.30;;;2.40;;
82990;SDS011;72806;50.832;4.864;2023-10-31T10:52:01;7.18;;;2.50;;
82990;SDS011;72806;50.832;4.864;2023-10-31T10:54:32;6.43;;;2.30;;
82990;SDS011;72806;50.832;4.864;2023-10-31T10:57:02;3.58;;;2.08;;
82990;SDS011;72806;50.832;4.864;2023-10-31T10:59:34;9.77;;;2.42;;
82990;SDS011;72806;50.832;4.864;2023-10-31T11:02:05;2.13;;;1.60;;
82990;SDS011;72806;50.832;4.864;2023-10-31T11:04:33;4.82;;;2.50;;
82990;SDS011;72806;50.832;4.864;2023-10-31T11:07:00;3.90;;;2.10;;
82990;SDS011;72806;50.832;4.864;2023-10-31T11:09:29;7.13;;;2.20;;
82990;SDS011;72806;50.832;4.864;2023-10-31T11:11:57;3.88;;;1.73;;
82990;SDS011;72806;50.832;4.864;2023-10-31T11:14:25;6.50;;;2.30;;
82990;SDS011;72806;50.832;4.864;2023-10-31T11:16:55;4.38;;;2.10;;
82990;SDS011;72806;50.832;4.864;2023-10-31T11:19:24;7.18;;;2.08;;
82990;SDS011;72806;50.832;4.864;2023-10-31T11:21:53;6.38;;;2.20;;
82990;SDS011;72806;50.832;4.864;2023-10-31T11:24:22;7.78;;;2.65;;
82990;SDS011;72806;50.832;4.864;2023-10-31T11:26:53;7.63;;;2.75;;
82990;SDS011;72806;50.832;4.864;2023-10-31T11:29:21;5.63;;;2.40;;
82990;SDS011;72806;50.832;4.864;2023-10-31T11:31:48;4.63;;;2.30;;
82990;SDS011;72806;50.832;4.864;2023-10-31T11:34:18;6.07;;;2.28;;
82990;SDS011;72806;50.832;4.864;2023-10-31T11:36:46;5.07;;;2.40;;
82990;SDS011;72806;50.832;4.864;2023-10-31T11:39:14;5.38;;;2.60;;
82990;SDS011;72806;50.832;4.864;2023-10-31T11:41:45;4.65;;;2.92;;
82990;SDS011;72806;50.832;4.864;2023-10-31T11:44:15;7.22;;;2.90;;
82990;SDS011;72806;50.832;4.864;2023-10-31T11:46:42;7.57;;;3.70;;
82990;SDS011;72806;50.832;4.864;2023-10-31T11:49:15;5.38;;;2.70;;
82990;SDS011;72806;50.832;4.864;2023-10-31T11:51:45;4.50;;;2.92;;
82990;SDS011;72806;50.832;4.864;2023-10-31T11:54:13;7.22;;;3.30;;
82990;SDS011;72806;50.832;4.864;2023-10-31T11:56:41;6.53;;;3.25;;
82990;SDS011;72806;50.832;4.864;2023-10-31T11:59:08;4.65;;;3.13;;
82990;SDS011;72806;50.832;4.864;2023-10-31T12:01:43;9.02;;;4.25;;
82990;SDS011;72806;50.832;4.864;2023-10-31T12:04:20;12.77;;;3.97;;
82990;SDS011;72806;50.832;4.864;2023-10-31T12:06:57;5.22;;;3.83;;
82990;SDS011;72806;50.832;4.864;2023-10-31T12:09:25;8.50;;;3.38;;
82990;SDS011;72806;50.832;4.864;2023-10-31T12:11:53;5.57;;;3.80;;
82990;SDS011;72806;50.832;4.864;2023-10-31T12:14:20;12.18;;;3.67;;
82990;SDS011;72806;50.832;4.864;2023-10-31T12:16:47;5.35;;;4.15;;
82990;SDS011;72806;50.832;4.864;2023-10-31T12:19:14;8.30;;;3.83;;
82990;SDS011;72806;50.832;4.864;2023-10-31T12:21:42;5.22;;;4.28;;
82990;SDS011;72806;50.832;4.864;2023-10-31T12:24:15;5.93;;;3.88;;
82990;SDS011;72806;50.832;4.864;2023-10-31T12:26:42;6.13;;;3.30;;
82990;SDS011;72806;50.832;4.864;2023-10-31T12:29:11;6.03;;;3.33;;
82990;SDS011;72806;50.832;4.864;2023-10-31T12:31:44;4.88;;;3.72;;
82990;SDS011;72806;50.832;4.864;2023-10-31T12:34:12;4.75;;;2.95;;
82990;SDS011;72806;50.832;4.864;2023-10-31T12:36:40;5.63;;;2.47;;
82990;SDS011;72806;50.832;4.864;2023-10-31T12:39:09;3.20;;;2.13;;
82990;SDS011;72806;50.832;4.864;2023-10-31T12:41:39;6.57;;;2.85;;
82990;SDS011;72806;50.832;4.864;2023-10-31T12:44:06;5.60;;;2.95;;
82990;SDS011;72806;50.832;4.864;2023-10-31T12:46:35;6.38;;;2.70;;
82990;SDS011;72806;50.832;4.864;2023-10-31T12:49:10;5.03;;;2.53;;
82990;SDS011;72806;50.832;4.864;2023-10-31T12:51:38;5.57;;;2.92;;
82990;SDS011;72806;50.832;4.864;2023-10-31T12:54:05;2.83;;;2.55;;
82990;SDS011;72806;50.832;4.864;2023-10-31T12:56:39;3.80;;;2.50;;
82990;SDS011;72806;50.832;4.864;2023-10-31T12:59:06;8.10;;;3.15;;
82990;SDS011;72806;50.832;4.864;2023-10-31T13:01:34;5.30;;;2.53;;
82990;SDS011;72806;50.832;4.864;2023-10-31T13:04:02;5.78;;;3.20;;
82990;SDS011;72806;50.832;4.864;2023-10-31T13:06:29;6.15;;;3.20;;
82990;SDS011;72806;50.832;4.864;2023-10-31T13:08:58;8.55;;;3.40;;
82990;SDS011;72806;50.832;4.864;2023-10-31T13:11:28;4.32;;;2.58;;
82990;SDS011;72806;50.832;4.864;2023-10-31T13:13:57;5.78;;;3.22;;
82990;SDS011;72806;50.832;4.864;2023-10-31T13:16:24;4.28;;;2.78;;
82990;SDS011;72806;50.832;4.864;2023-10-31T13:18:52;11.95;;;3.03;;
82990;SDS011;72806;50.832;4.864;2023-10-31T13:21:20;4.53;;;3.38;;
82990;SDS011;72806;50.832;4.864;2023-10-31T13:23:47;5.15;;;2.72;;
82990;SDS011;72806;50.832;4.864;2023-10-31T13:26:14;4.28;;;3.33;;
82990;SDS011;72806;50.832;4.864;2023-10-31T13:28:42;5.97;;;3.63;;
82990;SDS011;72806;50.832;4.864;2023-10-31T13:31:10;6.97;;;3.20;;
82990;SDS011;72806;50.832;4.864;2023-10-31T13:33:39;9.50;;;3.13;;
82990;SDS011;72806;50.832;4.864;2023-10-31T13:36:06;8.93;;;3.60;;
82990;SDS011;72806;50.832;4.864;2023-10-31T13:38:36;4.85;;;2.83;;
82990;SDS011;72806;50.832;4.864;2023-10-31T13:41:03;8.90;;;3.58;;
82990;SDS011;72806;50.832;4.864;2023-10-31T13:43:30;9.30;;;3.30;;
82990;SDS011;72806;50.832;4.864;2023-10-31T13:45:58;6.43;;;3.25;;
82990;SDS011;72806;50.832;4.864;2023-10-31T13:48:26;8.80;;;3.22;;
82990;SDS011;72806;50.832;4.864;2023-10-31T13:50:54;7.45;;;3.53;;
82990;SDS011;72806;50.832;4.864;2023-10-31T13:53:21;8.38;;;3.75;;
82990;SDS011;72806;50.832;4.864;2023-10-31T13:55:48;6.05;;;2.85;;
82990;SDS011;72806;50.832;4.864;2023-10-31T13:58:16;9.52;;;4.13;;
82990;SDS011;72806;50.832;4.864;2023-10-31T14:00:45;9.90;;;3.33;;
82990;SDS011;72806;50.832;4.864;2023-10-31T14:03:12;7.10;;;3.17;;
82990;SDS011;72806;50.832;4.864;2023-10-31T14:05:41;8.45;;;3.42;;
82990;SDS011;72806;50.832;4.864;2023-10-31T14:08:08;6.05;;;2.65;;
82990;SDS011;72806;50.832;4.864;2023-10-31T14:10:36;9.40;;;3.42;;
82990;SDS011;72806;50.832;4.864;2023-10-31T14:13:04;7.75;;;3.28;;
82990;SDS011;72806;50.832;4.864;2023-10-31T14:15:32;10.57;;;4.13;;
82990;SDS011;72806;50.832;4.864;2023-10-31T14:17:59;6.90;;;2.90;;
82990;SDS011;72806;50.832;4.864;2023-10-31T14:20:27;7.97;;;3.47;;
82990;SDS011;72806;50.832;4.864;2023-10-31T14:22:56;6.15;;;2.90;;
82990;SDS011;72806;50.832;4.864;2023-10-31T14:25:23;6.80;;;2.75;;
82990;SDS011;72806;50.832;4.864;2023-10-31T14:27:50;4.75;;;2.58;;
82990;SDS011;72806;50.832;4.864;2023-10-31T14:30:18;4.38;;;2.70;;
82990;SDS011;72806;50.832;4.864;2023-10-31T14:32:45;5.97;;;2.53;;
82990;SDS011;72806;50.832;4.864;2023-10-31T14:35:12;4.00;;;2.50;;
82990;SDS011;72806;50.832;4.864;2023-10-31T14:37:41;4.40;;;2.75;;
82990;SDS011;72806;50.832;4.864;2023-10-31T14:40:10;3.83;;;2.58;;
82990;SDS011;72806;50.832;4.864;2023-10-31T14:42:37;3.42;;;2.72;;
82990;SDS011;72806;50.832;4.864;2023-10-31T14:45:05;4.53;;;2.67;;
82990;SDS011;72806;50.832;4.864;2023-10-31T14:47:33;4.45;;;2.13;;